createdAt,value
2023-02-11T00:01:30.997Z,52.85
2023-02-11T00:04:01.704Z,52.28
2023-02-11T00:06:32.841Z,65.28
2023-02-11T00:09:01.020Z,58.67
2023-02-11T00:11:30.752Z,49.83
2023-02-11T00:14:00.444Z,61.05
2023-02-11T00:16:29.502Z,63.78
2023-02-11T00:18:57.734Z,52.97
2023-02-11T00:21:28.555Z,73.75
2023-02-11T00:23:59.698Z,57.95
2023-02-11T00:26:32.170Z,61.75
2023-02-11T00:29:01.922Z,53.58
2023-02-11T00:31:30.698Z,61.63
2023-02-11T00:33:58.890Z,54.95
2023-02-11T00:36:30.739Z,57.15
2023-02-11T00:39:00.890Z,57.17
2023-02-11T00:41:29.102Z,52.90
2023-02-11T00:43:57.471Z,58.53
2023-02-11T00:46:25.956Z,55.20
2023-02-11T00:48:57.589Z,54.75
2023-02-11T00:51:26.192Z,53.22
2023-02-11T00:53:56.384Z,54.17
2023-02-11T00:56:24.703Z,55.35
2023-02-11T00:58:53.405Z,56.47
2023-02-11T01:01:21.833Z,57.92
2023-02-11T01:03:50.010Z,56.00
2023-02-11T01:06:18.699Z,55.33
2023-02-11T01:08:46.967Z,57.35
2023-02-11T01:11:19.939Z,55.28
2023-02-11T01:13:50.837Z,63.00
2023-02-11T01:16:20.616Z,51.35
2023-02-11T01:18:49.169Z,52.40
2023-02-11T01:21:17.345Z,53.22
2023-02-11T01:23:45.635Z,53.55
2023-02-11T01:26:13.987Z,47.17
2023-02-11T01:28:43.555Z,56.05
2023-02-11T01:31:12.107Z,54.33
2023-02-11T01:33:40.257Z,53.35
2023-02-11T01:36:10.310Z,56.45
2023-02-11T01:38:40.885Z,53.40
2023-02-11T01:41:12.933Z,47.63
2023-02-11T01:43:46.540Z,47.33
2023-02-11T01:46:34.367Z,45.00
2023-02-11T01:49:08.570Z,52.45
2023-02-11T01:51:42.851Z,50.97
2023-02-11T01:54:32.236Z,52.05
2023-02-11T01:57:21.098Z,45.00
2023-02-11T02:00:08.291Z,54.55
2023-02-11T02:02:45.985Z,56.08
2023-02-11T02:05:25.671Z,43.58
2023-02-11T02:08:12.471Z,54.45
2023-02-11T02:10:48.495Z,50.63
2023-02-11T02:13:17.373Z,48.20
2023-02-11T02:15:53.195Z,47.28
2023-02-11T02:18:41.815Z,49.08
2023-02-11T02:21:43.170Z,51.90
2023-02-11T02:25:07.055Z,54.85
2023-02-11T02:27:52.135Z,52.22
2023-02-11T02:31:15.004Z,51.47
2023-02-11T02:33:54.746Z,52.65
2023-02-11T02:36:33.151Z,53.95
2023-02-11T02:39:10.560Z,53.53
2023-02-11T02:41:40.739Z,51.03
2023-02-11T02:44:10.000Z,49.38
2023-02-11T02:46:38.331Z,54.38
2023-02-11T02:49:15.547Z,55.33
2023-02-11T02:52:15.256Z,54.95
2023-02-11T02:55:21.442Z,59.10
2023-02-11T02:58:39.023Z,62.67
2023-02-11T03:01:22.814Z,53.40
2023-02-11T03:04:03.973Z,59.17
2023-02-11T03:06:45.765Z,54.17
2023-02-11T03:09:25.200Z,57.92
2023-02-11T03:11:53.779Z,57.63
2023-02-11T03:14:24.540Z,63.10
2023-02-11T03:16:55.870Z,53.63
2023-02-11T03:19:30.761Z,53.40
2023-02-11T03:22:03.940Z,63.92
2023-02-11T03:24:36.890Z,49.20
2023-02-11T03:27:13.878Z,52.60
2023-02-11T03:29:51.703Z,50.58
2023-02-11T03:32:28.052Z,48.67
2023-02-11T03:35:01.986Z,56.72
2023-02-11T03:37:40.888Z,47.25
2023-02-11T03:40:15.951Z,45.97
2023-02-11T03:42:50.473Z,54.00
2023-02-11T03:45:23.179Z,52.33
2023-02-11T03:47:59.194Z,44.28
2023-02-11T03:50:31.061Z,38.08
2023-02-11T03:53:04.096Z,41.70
2023-02-11T03:55:40.284Z,51.15
2023-02-11T03:58:09.556Z,37.67
2023-02-11T04:00:41.312Z,52.05
2023-02-11T04:03:11.388Z,48.80
2023-02-11T04:05:40.211Z,47.53
2023-02-11T04:08:10.392Z,39.38
2023-02-11T04:10:38.736Z,43.10
2023-02-11T04:13:06.905Z,43.42
2023-02-11T04:15:35.103Z,44.65
2023-02-11T04:18:03.625Z,53.83
2023-02-11T04:20:32.031Z,42.33
2023-02-11T04:23:00.084Z,39.45
2023-02-11T04:25:29.793Z,45.53
2023-02-11T04:27:58.121Z,42.95
2023-02-11T04:30:26.349Z,41.83
2023-02-11T04:32:54.948Z,44.05
2023-02-11T04:35:23.326Z,51.28
2023-02-11T04:37:51.412Z,47.28
2023-02-11T04:40:19.879Z,44.10
2023-02-11T04:42:49.402Z,47.55
2023-02-11T04:45:17.774Z,49.35
2023-02-11T04:47:45.888Z,47.42
2023-02-11T04:50:13.979Z,47.13
2023-02-11T04:52:42.118Z,44.00
2023-02-11T04:55:10.423Z,47.97
2023-02-11T04:57:38.506Z,44.00
2023-02-11T05:00:10.075Z,53.20
2023-02-11T05:02:40.007Z,50.45
2023-02-11T05:05:08.750Z,54.50
2023-02-11T05:07:36.977Z,53.90
2023-02-11T05:10:06.067Z,71.18
2023-02-11T05:12:34.235Z,79.30
2023-02-11T05:15:02.417Z,129.98
2023-02-11T05:17:33.192Z,112.63
2023-02-11T05:20:02.957Z,71.28
2023-02-11T05:22:31.201Z,78.32
2023-02-11T05:24:59.302Z,59.50
2023-02-11T05:27:27.500Z,74.30
2023-02-11T05:29:55.612Z,62.50
2023-02-11T05:32:23.827Z,70.68
2023-02-11T05:34:53.304Z,70.70
2023-02-11T05:37:21.433Z,67.25
2023-02-11T05:39:50.055Z,73.47
2023-02-11T05:42:18.113Z,63.10
2023-02-11T05:44:47.182Z,61.20
2023-02-11T05:47:16.040Z,67.75
2023-02-11T05:49:44.416Z,67.22
2023-02-11T05:52:14.059Z,76.07
2023-02-11T05:54:42.342Z,71.07
2023-02-11T05:57:10.454Z,62.97
2023-02-11T05:59:38.672Z,61.75
2023-02-11T06:02:07.941Z,66.50
2023-02-11T06:04:36.493Z,65.25
2023-02-11T06:07:05.312Z,60.03
2023-02-11T06:09:34.748Z,73.13
2023-02-11T06:12:02.886Z,69.68
2023-02-11T06:14:30.989Z,57.00
2023-02-11T06:16:59.040Z,72.65
2023-02-11T06:19:27.430Z,69.50
2023-02-11T06:21:56.960Z,73.35
2023-02-11T06:24:48.148Z,65.35
2023-02-11T06:27:14.976Z,61.03
2023-02-11T06:29:43.047Z,65.95
2023-02-11T06:32:28.152Z,69.95
2023-02-11T06:34:59.222Z,89.82
2023-02-11T06:37:27.318Z,83.65
2023-02-11T06:39:55.436Z,81.43
2023-02-11T06:42:25.114Z,83.20
2023-02-11T06:44:53.334Z,71.07
2023-02-11T06:47:21.503Z,54.88
2023-02-11T06:49:49.595Z,59.03
2023-02-11T06:52:17.768Z,51.65
2023-02-11T06:54:45.898Z,50.78
2023-02-11T06:57:14.078Z,57.63
2023-02-11T06:59:43.573Z,50.75
2023-02-11T07:02:12.371Z,55.40
2023-02-11T07:04:40.490Z,56.55
2023-02-11T07:07:08.776Z,52.17
2023-02-11T07:09:36.859Z,57.25
2023-02-11T07:12:05.694Z,56.42
2023-02-11T07:14:33.834Z,48.80
2023-02-11T07:17:04.076Z,49.92
2023-02-11T07:19:32.220Z,40.50
2023-02-11T07:22:00.475Z,42.35
2023-02-11T07:24:28.545Z,50.15
2023-02-11T07:26:56.643Z,54.63
2023-02-11T07:29:24.755Z,44.40
2023-02-11T07:31:53.064Z,48.53
2023-02-11T07:34:22.562Z,53.05
2023-02-11T07:36:51.313Z,50.38
2023-02-11T07:39:20.004Z,55.38
2023-02-11T07:41:49.306Z,47.08
2023-02-11T07:44:17.589Z,40.85
2023-02-11T07:46:46.247Z,50.58
2023-02-11T07:49:14.367Z,43.20
2023-02-11T07:51:43.941Z,52.13
2023-02-11T07:54:13.319Z,56.35
2023-02-11T07:56:41.388Z,52.60
2023-02-11T07:59:09.694Z,58.67
2023-02-11T08:01:37.934Z,61.58
2023-02-11T08:04:06.462Z,55.03
2023-02-11T08:06:36.243Z,52.25
2023-02-11T08:09:12.387Z,53.88
2023-02-11T08:11:40.446Z,47.80
2023-02-11T08:14:08.595Z,43.60
2023-02-11T08:16:39.833Z,46.75
2023-02-11T08:19:14.935Z,37.85
2023-02-11T08:21:44.400Z,41.95
2023-02-11T08:24:13.919Z,45.78
2023-02-11T08:26:42.077Z,49.90
2023-02-11T08:29:13.654Z,40.78
2023-02-11T08:31:45.884Z,45.92
2023-02-11T08:34:19.004Z,39.33
2023-02-11T08:36:48.995Z,40.72
2023-02-11T08:39:23.433Z,36.60
2023-02-11T08:41:54.513Z,40.05
2023-02-11T08:44:24.275Z,44.15
2023-02-11T08:46:53.317Z,35.88
2023-02-11T08:49:22.255Z,35.30
2023-02-11T08:51:51.081Z,38.90
2023-02-11T08:54:20.606Z,39.15
2023-02-11T08:56:52.728Z,30.73
2023-02-11T08:59:21.070Z,36.42
2023-02-11T09:01:49.621Z,39.28
2023-02-11T09:04:17.769Z,38.03
2023-02-11T09:06:46.420Z,38.55
2023-02-11T09:09:16.807Z,32.03
2023-02-11T09:11:47.904Z,35.10
2023-02-11T09:14:21.228Z,37.97
2023-02-11T09:16:50.831Z,36.72
2023-02-11T09:19:20.124Z,38.28
2023-02-11T09:21:48.570Z,28.23
2023-02-11T09:24:16.889Z,33.33
2023-02-11T09:26:46.433Z,35.35
2023-02-11T09:29:14.789Z,35.15
2023-02-11T09:31:42.937Z,40.25
2023-02-11T09:34:12.685Z,42.22
2023-02-11T09:36:42.479Z,37.08
2023-02-11T09:39:15.349Z,34.53
2023-02-11T09:42:26.169Z,29.63
2023-02-11T09:44:54.685Z,30.67
2023-02-11T09:47:31.052Z,33.80
2023-02-11T09:50:05.895Z,22.35
2023-02-11T09:52:44.005Z,31.85
2023-02-11T09:55:22.673Z,39.58
2023-02-11T09:57:53.146Z,33.20
2023-02-11T10:00:27.634Z,38.92
2023-02-11T10:03:44.138Z,37.15
2023-02-11T10:06:40.054Z,36.13
2023-02-11T10:09:38.102Z,32.85
2023-02-11T10:12:29.482Z,34.17
2023-02-11T10:15:38.297Z,34.38
2023-02-11T10:21:11.972Z,29.58
2023-02-11T10:23:48.115Z,32.97
2023-02-11T10:26:19.485Z,35.40
2023-02-11T10:28:52.912Z,35.53
2023-02-11T10:31:28.543Z,33.38
2023-02-11T10:34:04.624Z,45.50
2023-02-11T10:36:37.131Z,31.35
2023-02-11T10:39:15.236Z,37.60
2023-02-11T10:41:47.674Z,30.27
2023-02-11T10:44:28.614Z,33.33
2023-02-11T10:47:03.094Z,34.13
2023-02-11T10:49:39.117Z,29.35
2023-02-11T10:52:23.672Z,30.10
2023-02-11T10:55:02.203Z,44.95
2023-02-11T10:57:36.584Z,42.67
2023-02-11T11:00:24.145Z,36.10
2023-02-11T11:03:01.317Z,36.28
2023-02-11T11:05:35.416Z,37.40
2023-02-11T11:08:07.746Z,31.95
2023-02-11T11:10:44.328Z,31.63
2023-02-11T11:13:27.580Z,33.58
2023-02-11T11:16:22.816Z,40.33
2023-02-11T11:19:14.642Z,35.28
2023-02-11T11:21:46.773Z,35.10
2023-02-11T11:24:22.667Z,38.80
2023-02-11T11:26:54.103Z,33.45
2023-02-11T11:29:29.197Z,36.10
2023-02-11T11:32:01.296Z,44.65
2023-02-11T11:34:34.419Z,34.85
2023-02-11T11:37:14.918Z,36.20
2023-02-11T11:39:43.347Z,35.58
2023-02-11T11:42:28.878Z,32.78
2023-02-11T11:45:01.785Z,41.40
2023-02-11T11:47:39.086Z,38.53
2023-02-11T11:50:26.439Z,38.25
2023-02-11T11:53:04.027Z,33.70
2023-02-11T11:55:41.672Z,38.35
2023-02-11T11:58:17.610Z,35.70
2023-02-11T12:01:02.252Z,34.22
2023-02-11T12:04:29.375Z,32.63
2023-02-11T12:07:16.427Z,36.55
2023-02-11T12:10:05.376Z,35.75
2023-02-11T12:12:49.905Z,30.63
2023-02-11T12:15:35.307Z,33.22
2023-02-11T12:18:28.467Z,33.30
2023-02-11T12:21:25.021Z,35.17
2023-02-11T12:24:17.814Z,36.33
2023-02-11T12:26:54.364Z,37.65
2023-02-11T12:29:38.042Z,34.83
2023-02-11T12:32:26.722Z,36.22
2023-02-11T12:35:27.171Z,39.03
2023-02-11T12:38:26.890Z,32.35
2023-02-11T12:41:17.936Z,37.42
2023-02-11T12:43:45.706Z,33.67
2023-02-11T12:46:35.194Z,30.35
2023-02-11T12:49:27.829Z,33.45
2023-02-11T12:52:26.257Z,31.85
2023-02-11T12:55:01.417Z,34.05
2023-02-11T12:57:35.593Z,27.17
2023-02-11T13:00:14.814Z,25.95
2023-02-11T13:02:54.376Z,31.52
2023-02-11T13:05:30.095Z,27.15
2023-02-11T13:08:08.413Z,26.88
2023-02-11T13:10:39.559Z,28.75
2023-02-11T13:13:19.406Z,29.48
2023-02-11T13:15:54.840Z,37.35
2023-02-11T13:18:40.763Z,22.95
2023-02-11T13:21:32.089Z,31.13
2023-02-11T13:24:15.293Z,27.50
2023-02-11T13:26:52.315Z,29.52
2023-02-11T13:29:39.864Z,28.33
2023-02-11T13:32:11.722Z,33.38
2023-02-11T13:34:57.331Z,26.13
2023-02-11T13:37:31.826Z,23.65
2023-02-11T13:40:02.897Z,26.55
2023-02-11T13:42:51.998Z,28.33
2023-02-11T13:45:32.937Z,25.10
2023-02-11T13:48:05.791Z,29.55
2023-02-11T13:50:47.612Z,22.27
2023-02-11T13:53:17.946Z,25.77
2023-02-11T13:55:48.604Z,27.95
2023-02-11T13:58:39.845Z,24.38
2023-02-11T14:01:09.615Z,25.10
2023-02-11T14:03:57.977Z,25.10
2023-02-11T14:06:46.880Z,26.50
2023-02-11T14:09:45.007Z,30.52
2023-02-11T14:12:33.907Z,20.65
2023-02-11T14:15:30.769Z,24.80
2023-02-11T14:18:00.473Z,23.23
2023-02-11T14:20:44.559Z,23.70
2023-02-11T14:23:28.485Z,21.77
2023-02-11T14:26:20.071Z,28.77
2023-02-11T14:28:52.182Z,16.33
2023-02-11T14:31:27.417Z,21.67
2023-02-11T14:34:23.338Z,29.00
2023-02-11T14:37:03.437Z,48.97
2023-02-11T14:39:58.026Z,35.08
2023-02-11T14:42:31.011Z,23.13
2023-02-11T14:45:07.404Z,23.80
2023-02-11T14:47:43.975Z,19.52
2023-02-11T14:50:23.900Z,22.70
2023-02-11T14:52:54.287Z,24.15
2023-02-11T14:55:33.070Z,23.20
2023-02-11T14:58:13.990Z,27.23
2023-02-11T15:00:55.812Z,27.92
2023-02-11T15:03:33.713Z,24.42
2023-02-11T15:06:08.496Z,28.08
2023-02-11T15:08:43.406Z,27.02
2023-02-11T15:11:16.800Z,29.70
2023-02-11T15:13:47.599Z,38.85
2023-02-11T15:16:21.468Z,30.92
2023-02-11T15:18:54.000Z,32.08
2023-02-11T15:21:26.682Z,33.22
2023-02-11T15:24:05.927Z,34.08
2023-02-11T15:26:34.834Z,27.80
2023-02-11T15:29:03.173Z,25.38
2023-02-11T15:31:34.884Z,28.33
2023-02-11T15:34:09.327Z,27.95
2023-02-11T15:36:39.740Z,30.30
2023-02-11T15:39:32.362Z,24.40
2023-02-11T15:42:27.737Z,24.42
2023-02-11T15:45:25.883Z,33.38
2023-02-11T15:47:57.474Z,26.85
2023-02-11T15:50:29.503Z,31.30
2023-02-11T15:53:06.813Z,25.88
2023-02-11T15:55:35.069Z,27.67
2023-02-11T15:58:03.421Z,27.10
2023-02-11T16:00:38.617Z,25.23
2023-02-11T16:03:06.860Z,29.67
2023-02-11T16:05:38.453Z,26.20
2023-02-11T16:08:24.519Z,26.67
2023-02-11T16:10:58.845Z,32.80
2023-02-11T16:13:30.269Z,31.35
2023-02-11T16:16:02.417Z,28.42
2023-02-11T16:18:39.770Z,35.08
2023-02-11T16:21:16.852Z,27.08
2023-02-11T16:23:54.238Z,32.03
2023-02-11T16:26:28.774Z,26.13
2023-02-11T16:29:11.717Z,25.50
2023-02-11T16:31:44.446Z,32.83
2023-02-11T16:34:20.148Z,29.50
2023-02-11T16:36:49.568Z,28.00
2023-02-11T16:39:22.503Z,34.13
2023-02-11T16:41:51.808Z,33.75
2023-02-11T16:44:20.408Z,32.25
2023-02-11T16:46:49.032Z,30.48
2023-02-11T16:49:24.000Z,30.42
2023-02-11T16:51:57.595Z,32.40
2023-02-11T16:54:27.006Z,28.13
2023-02-11T16:56:55.865Z,27.95
2023-02-11T16:59:24.238Z,35.35
2023-02-11T17:01:54.814Z,27.42
2023-02-11T17:04:28.333Z,38.47
2023-02-11T17:06:58.381Z,35.03
2023-02-11T17:09:31.029Z,27.67
2023-02-11T17:12:00.165Z,30.45
2023-02-11T17:14:28.669Z,32.08
2023-02-11T17:16:57.204Z,29.88
2023-02-11T17:19:25.528Z,29.60
2023-02-11T17:21:54.534Z,34.05
2023-02-11T17:24:23.655Z,34.92
2023-02-11T17:26:53.252Z,32.00
2023-02-11T17:29:24.698Z,34.42
2023-02-11T17:31:53.799Z,34.67
2023-02-11T17:34:23.257Z,32.67
2023-02-11T17:36:51.816Z,30.35
2023-02-11T17:39:21.092Z,29.70
2023-02-11T17:41:49.360Z,31.33
2023-02-11T17:44:18.864Z,34.38
2023-02-11T17:46:46.976Z,28.88
2023-02-11T17:49:15.749Z,35.80
2023-02-11T17:51:43.886Z,33.08
2023-02-11T17:54:15.142Z,31.10
2023-02-11T17:56:43.940Z,32.03
2023-02-11T17:59:14.023Z,34.35
2023-02-11T18:01:44.974Z,30.88
2023-02-11T18:04:18.152Z,29.20
2023-02-11T18:06:47.165Z,23.75
2023-02-11T18:09:15.640Z,36.10
2023-02-11T18:11:43.974Z,36.45
2023-02-11T18:14:12.306Z,26.15
2023-02-11T18:16:43.022Z,34.40
2023-02-11T18:19:13.272Z,33.28
2023-02-11T18:21:41.557Z,37.67
2023-02-11T18:24:09.747Z,32.47
2023-02-11T18:26:37.946Z,34.03
2023-02-11T18:29:07.334Z,30.35
2023-02-11T18:31:36.886Z,34.90
2023-02-11T18:34:07.765Z,35.20
2023-02-11T18:36:37.718Z,30.77
2023-02-11T18:39:06.083Z,36.05
2023-02-11T18:41:34.436Z,36.78
2023-02-11T18:44:03.255Z,28.95
2023-02-11T18:46:31.934Z,31.35
2023-02-11T18:49:00.176Z,38.42
2023-02-11T18:51:28.839Z,26.67
2023-02-11T18:53:58.262Z,29.85
2023-02-11T18:56:27.785Z,38.65
2023-02-11T18:58:57.315Z,37.30
2023-02-11T19:01:28.194Z,34.28
2023-02-11T19:03:59.505Z,28.40
2023-02-11T19:06:30.878Z,31.15
2023-02-11T19:09:05.036Z,29.85
2023-02-11T19:11:50.412Z,34.97
2023-02-11T19:14:23.994Z,34.45
2023-02-11T19:16:55.270Z,34.83
2023-02-11T19:19:26.877Z,38.28
2023-02-11T19:21:56.252Z,40.42
2023-02-11T19:24:27.000Z,28.77
2023-02-11T19:26:59.407Z,38.47
2023-02-11T19:29:28.742Z,38.10
2023-02-11T19:31:57.091Z,34.50
2023-02-11T19:34:25.491Z,38.83
2023-02-11T19:36:54.422Z,40.03
2023-02-11T19:39:24.657Z,42.47
2023-02-11T19:41:54.575Z,38.33
2023-02-11T19:44:22.632Z,39.33
2023-02-11T19:46:53.334Z,37.08
2023-02-11T19:49:25.837Z,38.78
2023-02-11T19:51:58.087Z,39.83
2023-02-11T19:54:28.659Z,37.17
2023-02-11T19:56:59.106Z,33.42
2023-02-11T19:59:27.846Z,40.30
2023-02-11T20:01:56.060Z,37.53
2023-02-11T20:04:28.102Z,39.38
2023-02-11T20:06:56.160Z,39.83
2023-02-11T20:09:24.336Z,38.33
2023-02-11T20:11:52.441Z,34.20
2023-02-11T20:14:21.924Z,35.35
2023-02-11T20:16:50.378Z,35.55
2023-02-11T20:19:22.240Z,46.63
2023-02-11T20:21:53.853Z,38.78
2023-02-11T20:24:23.018Z,42.50
2023-02-11T20:26:55.270Z,36.83
2023-02-11T20:29:25.951Z,42.08
2023-02-11T20:31:55.131Z,42.65
2023-02-11T20:34:24.891Z,33.97
2023-02-11T20:36:53.517Z,34.80
2023-02-11T20:39:23.012Z,38.38
2023-02-11T20:41:52.436Z,37.63
2023-02-11T20:44:22.931Z,33.92
2023-02-11T20:46:53.928Z,39.78
2023-02-11T20:49:24.806Z,48.80
2023-02-11T20:51:53.736Z,41.40
2023-02-11T20:54:23.907Z,38.20
2023-02-11T20:56:53.900Z,40.63
2023-02-11T20:59:24.079Z,35.88
2023-02-11T21:01:56.616Z,34.35
2023-02-11T21:04:27.412Z,35.30
2023-02-11T21:06:58.818Z,38.15
2023-02-11T21:09:29.758Z,32.33
2023-02-11T21:11:58.153Z,48.30
2023-02-11T21:14:28.141Z,36.28
2023-02-11T21:16:58.095Z,34.90
2023-02-11T21:19:26.342Z,43.17
2023-02-11T21:21:57.416Z,34.10
2023-02-11T21:24:25.642Z,39.90
2023-02-11T21:26:53.848Z,34.40
2023-02-11T21:29:21.923Z,37.53
2023-02-11T21:31:51.395Z,39.63
2023-02-11T21:34:21.087Z,37.15
2023-02-11T21:36:51.145Z,33.25
2023-02-11T21:39:20.335Z,42.75
2023-02-11T21:41:48.498Z,44.58
2023-02-11T21:44:16.827Z,43.72
2023-02-11T21:46:45.021Z,40.75
2023-02-11T21:49:13.254Z,35.83
2023-02-11T21:51:42.806Z,36.25
2023-02-11T21:54:12.983Z,33.90
2023-02-11T21:56:41.166Z,33.85
2023-02-11T21:59:12.905Z,33.40
2023-02-11T22:01:42.436Z,41.45
2023-02-11T22:04:11.254Z,37.83
2023-02-11T22:06:39.798Z,39.47
2023-02-11T22:09:11.465Z,42.33
2023-02-11T22:11:40.600Z,42.47
2023-02-11T22:14:08.769Z,40.60
2023-02-11T22:16:37.197Z,41.65
2023-02-11T22:19:07.395Z,33.60
2023-02-11T22:21:35.728Z,31.35
2023-02-11T22:24:03.906Z,29.70
2023-02-11T22:26:33.602Z,29.98
2023-02-11T22:29:01.999Z,35.95
2023-02-11T22:31:33.265Z,40.78
2023-02-11T22:34:02.679Z,41.22
2023-02-11T22:36:33.662Z,36.13
2023-02-11T22:39:03.368Z,31.05
2023-02-11T22:41:32.914Z,38.45
2023-02-11T22:44:01.293Z,32.22
2023-02-11T22:46:29.438Z,36.17
2023-02-11T22:48:57.783Z,38.20
2023-02-11T22:51:30.885Z,50.92
2023-02-11T22:54:01.610Z,39.17
2023-02-11T22:56:32.535Z,44.88
2023-02-11T22:59:06.603Z,45.45
2023-02-11T23:01:36.993Z,40.50
2023-02-11T23:04:09.627Z,42.67
2023-02-11T23:06:37.799Z,42.05
2023-02-11T23:09:06.500Z,44.10
2023-02-11T23:11:35.838Z,38.80
2023-02-11T23:14:05.685Z,36.28
2023-02-11T23:16:36.115Z,33.70
2023-02-11T23:19:09.018Z,39.42
2023-02-11T23:21:40.542Z,39.63
2023-02-11T23:24:12.320Z,39.80
2023-02-11T23:26:42.822Z,51.97
2023-02-11T23:29:13.430Z,41.05
2023-02-11T23:31:46.546Z,37.67
2023-02-11T23:34:17.121Z,54.50
2023-02-11T23:36:45.640Z,48.33
2023-02-11T23:39:16.978Z,39.67
2023-02-11T23:41:45.244Z,48.20
2023-02-11T23:44:14.748Z,48.38
2023-02-11T23:46:42.867Z,43.60
2023-02-11T23:49:11.242Z,45.10
2023-02-11T23:51:39.293Z,42.13
2023-02-11T23:54:07.457Z,50.72
2023-02-11T23:56:37.075Z,53.50
2023-02-11T23:59:05.628Z,50.72
